sensor_id;sensor_type;location;lat;lon;timestamp;P1;durP1;ratioP1;P2;durP2;ratioP2
20095;SDS011;10207;50.942;6.900;2023-04-24T00:02:12;1.02;;;0.60;;
20095;SDS011;10207;50.942;6.900;2023-04-24T00:04:38;0.52;;;0.50;;
20095;SDS011;10207;50.942;6.900;2023-04-24T00:07:06;1.95;;;0.70;;
20095;SDS011;10207;50.942;6.900;2023-04-24T00:09:35;4.30;;;0.77;;
20095;SDS011;10207;50.942;6.900;2023-04-24T00:12:01;1.67;;;0.75;;
20095;SDS011;10207;50.942;6.900;2023-04-24T00:14:30;1.50;;;0.70;;
20095;SDS011;10207;50.942;6.900;2023-04-24T00:16:56;1.17;;;0.70;;
20095;SDS011;10207;50.942;6.900;2023-04-24T00:19:22;1.45;;;0.70;;
20095;SDS011;10207;50.942;6.900;2023-04-24T00:21:48;3.22;;;0.60;;
20095;SDS011;10207;50.942;6.900;2023-04-24T00:24:16;1.10;;;0.47;;
20095;SDS011;10207;50.942;6.900;2023-04-24T00:26:42;0.93;;;0.60;;
20095;SDS011;10207;50.942;6.900;2023-04-24T00:29:08;5.97;;;1.00;;
20095;SDS011;10207;50.942;6.900;2023-04-24T00:31:34;1.00;;;0.70;;
20095;SDS011;10207;50.942;6.900;2023-04-24T00:34:01;1.08;;;0.65;;
20095;SDS011;10207;50.942;6.900;2023-04-24T00:36:28;1.23;;;0.88;;
20095;SDS011;10207;50.942;6.900;2023-04-24T00:38:54;1.52;;;0.35;;
20095;SDS011;10207;50.942;6.900;2023-04-24T00:41:21;2.22;;;0.60;;
20095;SDS011;10207;50.942;6.900;2023-04-24T00:43:47;1.25;;;0.70;;
20095;SDS011;10207;50.942;6.900;2023-04-24T00:46:13;1.25;;;0.75;;
20095;SDS011;10207;50.942;6.900;2023-04-24T00:48:39;1.75;;;0.60;;
20095;SDS011;10207;50.942;6.900;2023-04-24T00:51:06;1.10;;;0.57;;
20095;SDS011;10207;50.942;6.900;2023-04-24T00:53:32;2.78;;;0.88;;
20095;SDS011;10207;50.942;6.900;2023-04-24T00:55:58;3.50;;;0.88;;
20095;SDS011;10207;50.942;6.900;2023-04-24T00:58:25;2.13;;;0.93;;
20095;SDS011;10207;50.942;6.900;2023-04-24T01:00:52;2.28;;;0.80;;
20095;SDS011;10207;50.942;6.900;2023-04-24T01:03:22;1.63;;;0.93;;
20095;SDS011;10207;50.942;6.900;2023-04-24T01:05:48;2.33;;;0.90;;
20095;SDS011;10207;50.942;6.900;2023-04-24T01:08:15;3.70;;;1.00;;
20095;SDS011;10207;50.942;6.900;2023-04-24T01:10:41;1.08;;;0.82;;
20095;SDS011;10207;50.942;6.900;2023-04-24T01:13:09;2.17;;;1.10;;
20095;SDS011;10207;50.942;6.900;2023-04-24T01:15:36;0.98;;;0.88;;
20095;SDS011;10207;50.942;6.900;2023-04-24T01:18:02;2.45;;;1.05;;
20095;SDS011;10207;50.942;6.900;2023-04-24T01:20:28;2.03;;;0.90;;
20095;SDS011;10207;50.942;6.900;2023-04-24T01:22:54;1.60;;;0.90;;
20095;SDS011;10207;50.942;6.900;2023-04-24T01:25:22;5.97;;;0.80;;
20095;SDS011;10207;50.942;6.900;2023-04-24T01:27:48;1.70;;;0.88;;
20095;SDS011;10207;50.942;6.900;2023-04-24T01:30:14;2.03;;;0.80;;
20095;SDS011;10207;50.942;6.900;2023-04-24T01:32:41;2.40;;;1.60;;
20095;SDS011;10207;50.942;6.900;2023-04-24T01:35:07;2.42;;;1.52;;
20095;SDS011;10207;50.942;6.900;2023-04-24T01:37:33;3.38;;;2.20;;
20095;SDS011;10207;50.942;6.900;2023-04-24T01:39:59;3.50;;;1.75;;
20095;SDS011;10207;50.942;6.900;2023-04-24T01:42:25;3.55;;;2.35;;
20095;SDS011;10207;50.942;6.900;2023-04-24T01:44:52;2.90;;;2.08;;
20095;SDS011;10207;50.942;6.900;2023-04-24T01:47:18;4.72;;;2.10;;
20095;SDS011;10207;50.942;6.900;2023-04-24T01:49:44;5.97;;;2.63;;
20095;SDS011;10207;50.942;6.900;2023-04-24T01:52:12;4.22;;;2.20;;
20095;SDS011;10207;50.942;6.900;2023-04-24T01:54:38;3.53;;;2.47;;
20095;SDS011;10207;50.942;6.900;2023-04-24T01:57:04;4.55;;;2.30;;
20095;SDS011;10207;50.942;6.900;2023-04-24T01:59:29;9.25;;;2.85;;
20095;SDS011;10207;50.942;6.900;2023-04-24T02:01:56;5.43;;;2.45;;
20095;SDS011;10207;50.942;6.900;2023-04-24T02:04:22;5.00;;;2.33;;
20095;SDS011;10207;50.942;6.900;2023-04-24T02:06:48;5.90;;;3.08;;
20095;SDS011;10207;50.942;6.900;2023-04-24T02:09:14;6.20;;;3.13;;
20095;SDS011;10207;50.942;6.900;2023-04-24T02:11:40;5.50;;;2.63;;
20095;SDS011;10207;50.942;6.900;2023-04-24T02:14:06;8.10;;;3.30;;
20095;SDS011;10207;50.942;6.900;2023-04-24T02:16:32;5.00;;;3.38;;
20095;SDS011;10207;50.942;6.900;2023-04-24T02:18:58;7.05;;;3.60;;
20095;SDS011;10207;50.942;6.900;2023-04-24T02:21:24;4.72;;;3.40;;
20095;SDS011;10207;50.942;6.900;2023-04-24T02:23:51;4.88;;;3.25;;
20095;SDS011;10207;50.942;6.900;2023-04-24T02:26:16;6.13;;;3.88;;
20095;SDS011;10207;50.942;6.900;2023-04-24T02:28:44;5.68;;;3.13;;
20095;SDS011;10207;50.942;6.900;2023-04-24T02:31:10;5.75;;;3.42;;
20095;SDS011;10207;50.942;6.900;2023-04-24T02:33:36;8.45;;;3.47;;
20095;SDS011;10207;50.942;6.900;2023-04-24T02:36:02;6.05;;;3.75;;
20095;SDS011;10207;50.942;6.900;2023-04-24T02:38:28;5.80;;;3.28;;
20095;SDS011;10207;50.942;6.900;2023-04-24T02:40:54;6.80;;;3.42;;
20095;SDS011;10207;50.942;6.900;2023-04-24T02:43:20;10.80;;;3.45;;
20095;SDS011;10207;50.942;6.900;2023-04-24T02:45:46;5.88;;;3.70;;
20095;SDS011;10207;50.942;6.900;2023-04-24T02:48:12;7.28;;;3.70;;
20095;SDS011;10207;50.942;6.900;2023-04-24T02:50:38;6.22;;;3.58;;
20095;SDS011;10207;50.942;6.900;2023-04-24T02:53:04;6.40;;;3.58;;
20095;SDS011;10207;50.942;6.900;2023-04-24T02:55:30;6.03;;;3.90;;
20095;SDS011;10207;50.942;6.900;2023-04-24T02:57:56;5.88;;;4.07;;
20095;SDS011;10207;50.942;6.900;2023-04-24T03:00:22;7.95;;;3.75;;
20095;SDS011;10207;50.942;6.900;2023-04-24T03:02:48;5.45;;;3.47;;
20095;SDS011;10207;50.942;6.900;2023-04-24T03:05:15;6.50;;;3.90;;
20095;SDS011;10207;50.942;6.900;2023-04-24T03:07:41;10.25;;;4.70;;
20095;SDS011;10207;50.942;6.900;2023-04-24T03:10:07;6.20;;;3.83;;
20095;SDS011;10207;50.942;6.900;2023-04-24T03:12:33;10.80;;;4.40;;
20095;SDS011;10207;50.942;6.900;2023-04-24T03:15:00;8.13;;;4.43;;
20095;SDS011;10207;50.942;6.900;2023-04-24T03:17:26;7.55;;;5.13;;
20095;SDS011;10207;50.942;6.900;2023-04-24T03:19:51;7.22;;;4.88;;
20095;SDS011;10207;50.942;6.900;2023-04-24T03:22:17;8.10;;;5.25;;
20095;SDS011;10207;50.942;6.900;2023-04-24T03:24:44;7.47;;;4.53;;
20095;SDS011;10207;50.942;6.900;2023-04-24T03:27:11;8.00;;;5.15;;
20095;SDS011;10207;50.942;6.900;2023-04-24T03:29:57;9.40;;;5.35;;
20095;SDS011;10207;50.942;6.900;2023-04-24T03:32:33;7.07;;;4.60;;
20095;SDS011;10207;50.942;6.900;2023-04-24T03:35:00;7.80;;;4.85;;
20095;SDS011;10207;50.942;6.900;2023-04-24T03:37:26;6.90;;;4.50;;
20095;SDS011;10207;50.942;6.900;2023-04-24T03:40:03;12.05;;;5.00;;
20095;SDS011;10207;50.942;6.900;2023-04-24T03:42:30;8.98;;;5.50;;
20095;SDS011;10207;50.942;6.900;2023-04-24T03:44:56;7.78;;;4.88;;
20095;SDS011;10207;50.942;6.900;2023-04-24T03:47:26;9.38;;;5.75;;
20095;SDS011;10207;50.942;6.900;2023-04-24T03:49:55;8.95;;;5.32;;
20095;SDS011;10207;50.942;6.900;2023-04-24T03:52:21;10.32;;;5.18;;
20095;SDS011;10207;50.942;6.900;2023-04-24T03:54:47;7.50;;;5.10;;
20095;SDS011;10207;50.942;6.900;2023-04-24T03:57:13;8.10;;;4.95;;
20095;SDS011;10207;50.942;6.900;2023-04-24T03:59:49;7.20;;;5.35;;
20095;SDS011;10207;50.942;6.900;2023-04-24T04:02:18;12.63;;;6.10;;
20095;SDS011;10207;50.942;6.900;2023-04-24T04:04:44;10.23;;;5.40;;
20095;SDS011;10207;50.942;6.900;2023-04-24T04:07:09;7.45;;;4.80;;
20095;SDS011;10207;50.942;6.900;2023-04-24T04:09:37;9.70;;;4.80;;
20095;SDS011;10207;50.942;6.900;2023-04-24T04:12:03;8.82;;;4.95;;
20095;SDS011;10207;50.942;6.900;2023-04-24T04:14:29;7.97;;;5.18;;
20095;SDS011;10207;50.942;6.900;2023-04-24T04:16:55;8.60;;;5.10;;
20095;SDS011;10207;50.942;6.900;2023-04-24T04:19:21;7.97;;;4.90;;
20095;SDS011;10207;50.942;6.900;2023-04-24T04:21:47;7.05;;;4.35;;
20095;SDS011;10207;50.942;6.900;2023-04-24T04:24:28;6.80;;;4.18;;
20095;SDS011;10207;50.942;6.900;2023-04-24T04:26:54;5.80;;;4.15;;
20095;SDS011;10207;50.942;6.900;2023-04-24T04:29:34;7.47;;;4.57;;
20095;SDS011;10207;50.942;6.900;2023-04-24T04:32:04;12.30;;;4.70;;
20095;SDS011;10207;50.942;6.900;2023-04-24T04:34:30;8.45;;;4.65;;
20095;SDS011;10207;50.942;6.900;2023-04-24T04:36:57;5.70;;;4.20;;
20095;SDS011;10207;50.942;6.900;2023-04-24T04:39:39;7.65;;;4.40;;
20095;SDS011;10207;50.942;6.900;2023-04-24T04:42:11;6.22;;;4.20;;
20095;SDS011;10207;50.942;6.900;2023-04-24T04:44:41;7.32;;;4.60;;
20095;SDS011;10207;50.942;6.900;2023-04-24T04:47:12;6.15;;;4.43;;
20095;SDS011;10207;50.942;6.900;2023-04-24T04:49:39;7.55;;;4.57;;
20095;SDS011;10207;50.942;6.900;2023-04-24T04:52:12;10.00;;;4.90;;
20095;SDS011;10207;50.942;6.900;2023-04-24T04:54:39;8.77;;;4.45;;
20095;SDS011;10207;50.942;6.900;2023-04-24T04:57:05;7.75;;;4.40;;
20095;SDS011;10207;50.942;6.900;2023-04-24T04:59:32;7.85;;;4.57;;
20095;SDS011;10207;50.942;6.900;2023-04-24T05:02:04;10.00;;;4.68;;
20095;SDS011;10207;50.942;6.900;2023-04-24T05:04:30;9.63;;;4.47;;
20095;SDS011;10207;50.942;6.900;2023-04-24T05:06:57;6.93;;;4.68;;
20095;SDS011;10207;50.942;6.900;2023-04-24T05:09:23;7.13;;;4.30;;
20095;SDS011;10207;50.942;6.900;2023-04-24T05:11:55;5.05;;;3.70;;
20095;SDS011;10207;50.942;6.900;2023-04-24T05:14:23;5.28;;;3.65;;
20095;SDS011;10207;50.942;6.900;2023-04-24T05:16:49;6.43;;;3.78;;
20095;SDS011;10207;50.942;6.900;2023-04-24T05:19:18;9.35;;;4.07;;
20095;SDS011;10207;50.942;6.900;2023-04-24T05:21:45;5.93;;;4.00;;
20095;SDS011;10207;50.942;6.900;2023-04-24T05:24:11;7.32;;;4.13;;
20095;SDS011;10207;50.942;6.900;2023-04-24T05:26:56;7.70;;;3.85;;
20095;SDS011;10207;50.942;6.900;2023-04-24T05:29:28;5.90;;;4.00;;
20095;SDS011;10207;50.942;6.900;2023-04-24T05:31:56;8.02;;;3.75;;
20095;SDS011;10207;50.942;6.900;2023-04-24T05:34:23;8.25;;;4.38;;
20095;SDS011;10207;50.942;6.900;2023-04-24T05:36:53;7.07;;;4.32;;
20095;SDS011;10207;50.942;6.900;2023-04-24T05:39:20;9.77;;;5.82;;
20095;SDS011;10207;50.942;6.900;2023-04-24T05:41:46;6.03;;;4.05;;
20095;SDS011;10207;50.942;6.900;2023-04-24T05:44:12;7.18;;;3.92;;
20095;SDS011;10207;50.942;6.900;2023-04-24T05:46:38;9.38;;;3.75;;
20095;SDS011;10207;50.942;6.900;2023-04-24T05:49:03;6.10;;;4.00;;
20095;SDS011;10207;50.942;6.900;2023-04-24T05:51:31;6.85;;;4.28;;
20095;SDS011;10207;50.942;6.900;2023-04-24T05:53:58;6.72;;;4.43;;
20095;SDS011;10207;50.942;6.900;2023-04-24T05:56:25;7.30;;;4.05;;
20095;SDS011;10207;50.942;6.900;2023-04-24T05:58:51;7.50;;;3.65;;
20095;SDS011;10207;50.942;6.900;2023-04-24T06:01:17;5.85;;;3.72;;
20095;SDS011;10207;50.942;6.900;2023-04-24T06:03:48;6.97;;;3.65;;
20095;SDS011;10207;50.942;6.900;2023-04-24T06:06:14;5.93;;;3.78;;
20095;SDS011;10207;50.942;6.900;2023-04-24T06:08:41;11.07;;;3.38;;
20095;SDS011;10207;50.942;6.900;2023-04-24T06:11:10;4.50;;;2.05;;
20095;SDS011;10207;50.942;6.900;2023-04-24T06:13:37;6.45;;;1.80;;
20095;SDS011;10207;50.942;6.900;2023-04-24T06:16:31;2.90;;;1.60;;
20095;SDS011;10207;50.942;6.900;2023-04-24T06:19:03;4.80;;;1.85;;
20095;SDS011;10207;50.942;6.900;2023-04-24T06:21:29;3.85;;;1.40;;
20095;SDS011;10207;50.942;6.900;2023-04-24T06:23:55;2.85;;;1.75;;
20095;SDS011;10207;50.942;6.900;2023-04-24T06:26:21;2.63;;;1.45;;
20095;SDS011;10207;50.942;6.900;2023-04-24T06:28:50;4.38;;;2.08;;
20095;SDS011;10207;50.942;6.900;2023-04-24T06:31:16;3.78;;;2.00;;
20095;SDS011;10207;50.942;6.900;2023-04-24T06:33:42;2.35;;;1.75;;
20095;SDS011;10207;50.942;6.900;2023-04-24T06:36:09;1.75;;;1.27;;
20095;SDS011;10207;50.942;6.900;2023-04-24T06:38:36;2.38;;;1.52;;
20095;SDS011;10207;50.942;6.900;2023-04-24T06:41:02;3.83;;;1.45;;
20095;SDS011;10207;50.942;6.900;2023-04-24T06:43:28;2.88;;;1.55;;
20095;SDS011;10207;50.942;6.900;2023-04-24T06:45:54;3.40;;;1.92;;
20095;SDS011;10207;50.942;6.900;2023-04-24T06:48:20;5.07;;;1.60;;
20095;SDS011;10207;50.942;6.900;2023-04-24T06:50:46;3.42;;;1.70;;
20095;SDS011;10207;50.942;6.900;2023-04-24T06:53:12;3.08;;;2.05;;
20095;SDS011;10207;50.942;6.900;2023-04-24T06:55:40;5.25;;;1.85;;
20095;SDS011;10207;50.942;6.900;2023-04-24T06:58:06;3.35;;;1.90;;
20095;SDS011;10207;50.942;6.900;2023-04-24T07:00:32;2.90;;;1.70;;
20095;SDS011;10207;50.942;6.900;2023-04-24T07:02:58;3.40;;;2.30;;
20095;SDS011;10207;50.942;6.900;2023-04-24T07:05:24;4.85;;;2.20;;
20095;SDS011;10207;50.942;6.900;2023-04-24T07:07:50;5.40;;;2.13;;
20095;SDS011;10207;50.942;6.900;2023-04-24T07:10:17;3.92;;;2.42;;
20095;SDS011;10207;50.942;6.900;2023-04-24T07:12:43;3.40;;;2.78;;
20095;SDS011;10207;50.942;6.900;2023-04-24T07:15:09;4.47;;;2.15;;
20095;SDS011;10207;50.942;6.900;2023-04-24T07:17:36;4.88;;;2.53;;
20095;SDS011;10207;50.942;6.900;2023-04-24T07:20:04;4.57;;;1.90;;
20095;SDS011;10207;50.942;6.900;2023-04-24T07:22:31;4.38;;;2.67;;
20095;SDS011;10207;50.942;6.900;2023-04-24T07:24:56;3.95;;;2.67;;
20095;SDS011;10207;50.942;6.900;2023-04-24T07:27:22;4.88;;;3.25;;
20095;SDS011;10207;50.942;6.900;2023-04-24T07:29:48;4.22;;;2.78;;
20095;SDS011;10207;50.942;6.900;2023-04-24T07:32:14;3.25;;;2.30;;
20095;SDS011;10207;50.942;6.900;2023-04-24T07:34:40;3.25;;;2.00;;
20095;SDS011;10207;50.942;6.900;2023-04-24T07:37:06;4.50;;;2.38;;
20095;SDS011;10207;50.942;6.900;2023-04-24T07:39:32;5.13;;;1.83;;
20095;SDS011;10207;50.942;6.900;2023-04-24T07:41:58;3.35;;;2.03;;
20095;SDS011;10207;50.942;6.900;2023-04-24T07:44:24;2.28;;;1.13;;
20095;SDS011;10207;50.942;6.900;2023-04-24T07:46:50;3.13;;;1.60;;
20095;SDS011;10207;50.942;6.900;2023-04-24T07:49:16;4.20;;;1.08;;
20095;SDS011;10207;50.942;6.900;2023-04-24T07:51:42;2.03;;;1.25;;
20095;SDS011;10207;50.942;6.900;2023-04-24T07:54:08;2.92;;;0.90;;
20095;SDS011;10207;50.942;6.900;2023-04-24T07:56:34;4.72;;;1.08;;
20095;SDS011;10207;50.942;6.900;2023-04-24T07:59:04;3.53;;;1.30;;
20095;SDS011;10207;50.942;6.900;2023-04-24T08:01:30;3.45;;;1.27;;
20095;SDS011;10207;50.942;6.900;2023-04-24T08:03:56;2.55;;;1.30;;
20095;SDS011;10207;50.942;6.900;2023-04-24T08:06:22;8.30;;;1.40;;
20095;SDS011;10207;50.942;6.900;2023-04-24T08:08:48;1.95;;;1.30;;
20095;SDS011;10207;50.942;6.900;2023-04-24T08:11:14;3.90;;;1.65;;
20095;SDS011;10207;50.942;6.900;2023-04-24T08:13:40;4.15;;;1.73;;
20095;SDS011;10207;50.942;6.900;2023-04-24T08:16:06;2.85;;;1.60;;
20095;SDS011;10207;50.942;6.900;2023-04-24T08:18:32;2.28;;;1.27;;
20095;SDS011;10207;50.942;6.900;2023-04-24T08:20:59;3.10;;;0.98;;
20095;SDS011;10207;50.942;6.900;2023-04-24T08:23:27;2.38;;;0.98;;
20095;SDS011;10207;50.942;6.900;2023-04-24T08:25:53;3.00;;;1.45;;
20095;SDS011;10207;50.942;6.900;2023-04-24T08:28:18;3.28;;;1.23;;
20095;SDS011;10207;50.942;6.900;2023-04-24T08:30:46;1.42;;;1.00;;
20095;SDS011;10207;50.942;6.900;2023-04-24T08:33:13;2.00;;;1.13;;
20095;SDS011;10207;50.942;6.900;2023-04-24T08:35:39;2.38;;;1.25;;
20095;SDS011;10207;50.942;6.900;2023-04-24T08:38:05;1.85;;;1.20;;
20095;SDS011;10207;50.942;6.900;2023-04-24T08:40:32;4.82;;;1.13;;
20095;SDS011;10207;50.942;6.900;2023-04-24T08:42:59;2.95;;;1.23;;
20095;SDS011;10207;50.942;6.900;2023-04-24T08:45:26;2.58;;;1.33;;
20095;SDS011;10207;50.942;6.900;2023-04-24T08:47:52;2.67;;;1.75;;
20095;SDS011;10207;50.942;6.900;2023-04-24T08:50:19;3.03;;;1.50;;
20095;SDS011;10207;50.942;6.900;2023-04-24T08:52:45;4.30;;;1.98;;
20095;SDS011;10207;50.942;6.900;2023-04-24T08:55:12;3.67;;;2.15;;
20095;SDS011;10207;50.942;6.900;2023-04-24T08:57:38;2.42;;;1.65;;
20095;SDS011;10207;50.942;6.900;2023-04-24T09:00:06;4.13;;;2.45;;
20095;SDS011;10207;50.942;6.900;2023-04-24T09:02:32;4.05;;;2.65;;
20095;SDS011;10207;50.942;6.900;2023-04-24T09:05:00;5.32;;;3.00;;
20095;SDS011;10207;50.942;6.900;2023-04-24T09:07:27;6.97;;;3.72;;
20095;SDS011;10207;50.942;6.900;2023-04-24T09:09:53;5.85;;;3.30;;
20095;SDS011;10207;50.942;6.900;2023-04-24T09:12:19;6.63;;;3.50;;
20095;SDS011;10207;50.942;6.900;2023-04-24T09:14:46;6.93;;;4.40;;
20095;SDS011;10207;50.942;6.900;2023-04-24T09:17:13;7.47;;;4.13;;
20095;SDS011;10207;50.942;6.900;2023-04-24T09:19:39;7.03;;;3.90;;
20095;SDS011;10207;50.942;6.900;2023-04-24T09:22:06;7.75;;;4.05;;
20095;SDS011;10207;50.942;6.900;2023-04-24T09:24:33;9.23;;;4.70;;
20095;SDS011;10207;50.942;6.900;2023-04-24T09:26:59;10.43;;;6.40;;
20095;SDS011;10207;50.942;6.900;2023-04-24T09:29:27;9.25;;;5.50;;
20095;SDS011;10207;50.942;6.900;2023-04-24T09:31:53;12.40;;;5.65;;
20095;SDS011;10207;50.942;6.900;2023-04-24T09:34:22;10.23;;;5.90;;
20095;SDS011;10207;50.942;6.900;2023-04-24T09:36:49;14.27;;;6.30;;
20095;SDS011;10207;50.942;6.900;2023-04-24T09:39:16;11.40;;;6.80;;
20095;SDS011;10207;50.942;6.900;2023-04-24T09:41:46;16.65;;;6.30;;
20095;SDS011;10207;50.942;6.900;2023-04-24T09:46:38;9.82;;;5.82;;
20095;SDS011;10207;50.942;6.900;2023-04-24T09:49:12;9.57;;;6.55;;
20095;SDS011;10207;50.942;6.900;2023-04-24T09:51:39;12.15;;;7.53;;
20095;SDS011;10207;50.942;6.900;2023-04-24T09:54:16;10.02;;;6.72;;
20095;SDS011;10207;50.942;6.900;2023-04-24T09:56:43;11.63;;;7.20;;
20095;SDS011;10207;50.942;6.900;2023-04-24T09:59:11;15.48;;;8.43;;
20095;SDS011;10207;50.942;6.900;2023-04-24T10:01:37;11.48;;;7.63;;
20095;SDS011;10207;50.942;6.900;2023-04-24T10:04:04;10.77;;;6.47;;
20095;SDS011;10207;50.942;6.900;2023-04-24T10:06:32;12.13;;;6.78;;
20095;SDS011;10207;50.942;6.900;2023-04-24T10:08:58;11.77;;;6.63;;
20095;SDS011;10207;50.942;6.900;2023-04-24T10:11:28;9.25;;;4.95;;
20095;SDS011;10207;50.942;6.900;2023-04-24T10:13:54;13.32;;;5.93;;
20095;SDS011;10207;50.942;6.900;2023-04-24T10:16:21;9.88;;;5.97;;
20095;SDS011;10207;50.942;6.900;2023-04-24T10:18:48;11.65;;;5.63;;
20095;SDS011;10207;50.942;6.900;2023-04-24T10:21:17;13.05;;;5.05;;
20095;SDS011;10207;50.942;6.900;2023-04-24T10:23:43;7.18;;;4.30;;
20095;SDS011;10207;50.942;6.900;2023-04-24T10:26:12;8.93;;;3.70;;
20095;SDS011;10207;50.942;6.900;2023-04-24T10:28:46;9.00;;;4.22;;
20095;SDS011;10207;50.942;6.900;2023-04-24T10:31:15;8.85;;;3.47;;
20095;SDS011;10207;50.942;6.900;2023-04-24T10:33:42;10.23;;;4.45;;
20095;SDS011;10207;50.942;6.900;2023-04-24T10:36:11;12.05;;;4.38;;
20095;SDS011;10207;50.942;6.900;2023-04-24T10:38:39;9.45;;;3.72;;
20095;SDS011;10207;50.942;6.900;2023-04-24T10:41:10;8.73;;;3.58;;
20095;SDS011;10207;50.942;6.900;2023-04-24T10:43:45;7.75;;;3.85;;
20095;SDS011;10207;50.942;6.900;2023-04-24T10:46:16;6.50;;;3.70;;
20095;SDS011;10207;50.942;6.900;2023-04-24T10:48:51;8.68;;;3.45;;
20095;SDS011;10207;50.942;6.900;2023-04-24T10:51:18;8.60;;;3.13;;
20095;SDS011;10207;50.942;6.900;2023-04-24T10:53:47;8.45;;;3.40;;
20095;SDS011;10207;50.942;6.900;2023-04-24T10:56:15;7.72;;;3.03;;
20095;SDS011;10207;50.942;6.900;2023-04-24T10:58:42;10.88;;;2.90;;
20095;SDS011;10207;50.942;6.900;2023-04-24T11:03:57;6.20;;;2.63;;
20095;SDS011;10207;50.942;6.900;2023-04-24T11:09:07;7.22;;;3.25;;
20095;SDS011;10207;50.942;6.900;2023-04-24T11:11:34;5.97;;;3.45;;
20095;SDS011;10207;50.942;6.900;2023-04-24T11:14:01;7.72;;;3.20;;
20095;SDS011;10207;50.942;6.900;2023-04-24T11:16:28;8.23;;;2.17;;
20095;SDS011;10207;50.942;6.900;2023-04-24T11:21:30;6.90;;;3.33;;
20095;SDS011;10207;50.942;6.900;2023-04-24T11:23:57;11.65;;;2.53;;
20095;SDS011;10207;50.942;6.900;2023-04-24T11:26:24;7.22;;;2.50;;
20095;SDS011;10207;50.942;6.900;2023-04-24T11:28:55;6.38;;;2.40;;
20095;SDS011;10207;50.942;6.900;2023-04-24T11:31:39;6.38;;;2.47;;
20095;SDS011;10207;50.942;6.900;2023-04-24T11:34:10;12.63;;;2.38;;
20095;SDS011;10207;50.942;6.900;2023-04-24T11:36:36;8.35;;;3.25;;
20095;SDS011;10207;50.942;6.900;2023-04-24T11:39:02;9.13;;;3.00;;
20095;SDS011;10207;50.942;6.900;2023-04-24T11:41:28;7.28;;;2.90;;
20095;SDS011;10207;50.942;6.900;2023-04-24T11:43:54;11.30;;;3.53;;
20095;SDS011;10207;50.942;6.900;2023-04-24T11:46:21;5.45;;;3.30;;
20095;SDS011;10207;50.942;6.900;2023-04-24T11:48:47;6.50;;;2.42;;
20095;SDS011;10207;50.942;6.900;2023-04-24T11:51:13;10.82;;;3.17;;
20095;SDS011;10207;50.942;6.900;2023-04-24T11:53:39;11.02;;;3.00;;
20095;SDS011;10207;50.942;6.900;2023-04-24T11:56:05;7.53;;;2.75;;
20095;SDS011;10207;50.942;6.900;2023-04-24T11:58:38;8.75;;;2.58;;
20095;SDS011;10207;50.942;6.900;2023-04-24T12:01:05;10.57;;;2.75;;
20095;SDS011;10207;50.942;6.900;2023-04-24T12:03:31;7.70;;;3.17;;
20095;SDS011;10207;50.942;6.900;2023-04-24T12:06:06;6.82;;;2.03;;
20095;SDS011;10207;50.942;6.900;2023-04-24T12:08:33;3.67;;;1.77;;
20095;SDS011;10207;50.942;6.900;2023-04-24T12:11:00;5.70;;;2.72;;
20095;SDS011;10207;50.942;6.900;2023-04-24T12:13:26;6.68;;;2.17;;
20095;SDS011;10207;50.942;6.900;2023-04-24T12:15:52;8.90;;;3.08;;
20095;SDS011;10207;50.942;6.900;2023-04-24T12:18:18;5.15;;;2.22;;
20095;SDS011;10207;50.942;6.900;2023-04-24T12:20:44;7.18;;;3.17;;
20095;SDS011;10207;50.942;6.900;2023-04-24T12:23:10;9.15;;;3.08;;
20095;SDS011;10207;50.942;6.900;2023-04-24T12:25:38;11.50;;;2.53;;
20095;SDS011;10207;50.942;6.900;2023-04-24T12:30:31;8.88;;;3.30;;
20095;SDS011;10207;50.942;6.900;2023-04-24T12:32:58;6.03;;;3.00;;
20095;SDS011;10207;50.942;6.900;2023-04-24T12:35:29;5.60;;;2.55;;
20095;SDS011;10207;50.942;6.900;2023-04-24T12:37:55;10.13;;;3.55;;
20095;SDS011;10207;50.942;6.900;2023-04-24T12:40:21;8.93;;;3.22;;
20095;SDS011;10207;50.942;6.900;2023-04-24T12:42:49;8.30;;;2.72;;
20095;SDS011;10207;50.942;6.900;2023-04-24T12:45:15;11.10;;;3.10;;
20095;SDS011;10207;50.942;6.900;2023-04-24T12:47:42;9.00;;;3.42;;
20095;SDS011;10207;50.942;6.900;2023-04-24T12:50:09;8.50;;;2.75;;
20095;SDS011;10207;50.942;6.900;2023-04-24T12:52:35;8.02;;;3.38;;
20095;SDS011;10207;50.942;6.900;2023-04-24T12:55:01;13.07;;;3.47;;
20095;SDS011;10207;50.942;6.900;2023-04-24T12:57:29;10.50;;;3.30;;
20095;SDS011;10207;50.942;6.900;2023-04-24T12:59:56;8.18;;;2.60;;
20095;SDS011;10207;50.942;6.900;2023-04-24T13:02:22;8.52;;;2.97;;
20095;SDS011;10207;50.942;6.900;2023-04-24T13:04:48;10.38;;;3.20;;
20095;SDS011;10207;50.942;6.900;2023-04-24T13:07:14;8.70;;;3.00;;
20095;SDS011;10207;50.942;6.900;2023-04-24T13:09:41;4.95;;;2.88;;
20095;SDS011;10207;50.942;6.900;2023-04-24T13:12:08;12.15;;;3.05;;
20095;SDS011;10207;50.942;6.900;2023-04-24T13:14:34;11.55;;;3.20;;
20095;SDS011;10207;50.942;6.900;2023-04-24T13:17:00;6.72;;;2.03;;
20095;SDS011;10207;50.942;6.900;2023-04-24T13:19:26;11.50;;;3.83;;
20095;SDS011;10207;50.942;6.900;2023-04-24T13:21:53;8.40;;;3.25;;
20095;SDS011;10207;50.942;6.900;2023-04-24T13:24:21;7.15;;;2.95;;
20095;SDS011;10207;50.942;6.900;2023-04-24T13:26:50;10.57;;;3.42;;
20095;SDS011;10207;50.942;6.900;2023-04-24T13:29:16;12.80;;;3.70;;
20095;SDS011;10207;50.942;6.900;2023-04-24T13:31:42;7.22;;;2.97;;
20095;SDS011;10207;50.942;6.900;2023-04-24T13:34:08;7.13;;;2.78;;
20095;SDS011;10207;50.942;6.900;2023-04-24T13:36:34;8.35;;;3.05;;
20095;SDS011;10207;50.942;6.900;2023-04-24T13:39:01;8.07;;;2.63;;
20095;SDS011;10207;50.942;6.900;2023-04-24T13:41:26;13.57;;;2.95;;
20095;SDS011;10207;50.942;6.900;2023-04-24T13:43:52;10.05;;;3.67;;
20095;SDS011;10207;50.942;6.900;2023-04-24T13:46:18;8.30;;;3.42;;
20095;SDS011;10207;50.942;6.900;2023-04-24T13:48:44;6.72;;;2.85;;
20095;SDS011;10207;50.942;6.900;2023-04-24T13:51:10;7.70;;;2.85;;
20095;SDS011;10207;50.942;6.900;2023-04-24T13:53:36;6.47;;;2.67;;
20095;SDS011;10207;50.942;6.900;2023-04-24T13:56:04;13.52;;;3.67;;
20095;SDS011;10207;50.942;6.900;2023-04-24T13:58:31;3.55;;;1.80;;
20095;SDS011;10207;50.942;6.900;2023-04-24T14:00:58;7.90;;;3.35;;
20095;SDS011;10207;50.942;6.900;2023-04-24T14:03:23;6.25;;;3.42;;
20095;SDS011;10207;50.942;6.900;2023-04-24T14:05:49;9.27;;;3.20;;
20095;SDS011;10207;50.942;6.900;2023-04-24T14:08:15;13.35;;;3.72;;
20095;SDS011;10207;50.942;6.900;2023-04-24T14:10:42;4.90;;;2.40;;
20095;SDS011;10207;50.942;6.900;2023-04-24T14:13:08;6.80;;;2.65;;
20095;SDS011;10207;50.942;6.900;2023-04-24T14:15:35;6.35;;;3.33;;
20095;SDS011;10207;50.942;6.900;2023-04-24T14:18:01;6.15;;;2.83;;
20095;SDS011;10207;50.942;6.900;2023-04-24T14:20:27;7.30;;;2.70;;
20095;SDS011;10207;50.942;6.900;2023-04-24T14:22:53;6.30;;;2.63;;
20095;SDS011;10207;50.942;6.900;2023-04-24T14:25:19;7.18;;;2.63;;
20095;SDS011;10207;50.942;6.900;2023-04-24T14:27:44;6.68;;;2.47;;
20095;SDS011;10207;50.942;6.900;2023-04-24T14:30:11;4.45;;;2.47;;
20095;SDS011;10207;50.942;6.900;2023-04-24T14:32:38;7.60;;;2.92;;
20095;SDS011;10207;50.942;6.900;2023-04-24T14:35:05;6.35;;;2.47;;
20095;SDS011;10207;50.942;6.900;2023-04-24T14:37:31;5.32;;;2.60;;
20095;SDS011;10207;50.942;6.900;2023-04-24T14:39:58;7.03;;;3.10;;
20095;SDS011;10207;50.942;6.900;2023-04-24T14:42:24;6.90;;;2.85;;
20095;SDS011;10207;50.942;6.900;2023-04-24T14:44:50;6.57;;;2.70;;
20095;SDS011;10207;50.942;6.900;2023-04-24T14:47:16;7.53;;;2.47;;
20095;SDS011;10207;50.942;6.900;2023-04-24T14:49:43;5.30;;;3.30;;
20095;SDS011;10207;50.942;6.900;2023-04-24T14:52:09;5.45;;;3.00;;
20095;SDS011;10207;50.942;6.900;2023-04-24T14:54:35;9.45;;;3.03;;
20095;SDS011;10207;50.942;6.900;2023-04-24T14:57:01;7.72;;;2.88;;
20095;SDS011;10207;50.942;6.900;2023-04-24T14:59:27;10.25;;;3.58;;